createdAt,value
2022-07-25T00:01:06.914Z,16.84
2022-07-25T00:03:11.027Z,16.81
2022-07-25T00:05:14.673Z,16.80
2022-07-25T00:07:18.352Z,16.75
2022-07-25T00:09:21.877Z,16.73
2022-07-25T00:11:27.434Z,16.69
2022-07-25T00:13:30.917Z,16.69
2022-07-25T00:15:34.975Z,16.66
2022-07-25T00:17:38.916Z,16.65
2022-07-25T00:19:42.683Z,16.64
2022-07-25T00:21:46.489Z,16.63
2022-07-25T00:23:50.595Z,16.62
2022-07-25T00:25:54.149Z,16.62
2022-07-25T00:27:59.307Z,16.63
2022-07-25T00:30:03.252Z,16.63
2022-07-25T00:32:08.014Z,16.63
2022-07-25T00:34:11.636Z,16.63
2022-07-25T00:36:15.332Z,16.65
2022-07-25T00:38:19.043Z,16.66
2022-07-25T00:40:22.794Z,16.71
2022-07-25T00:42:26.409Z,16.73
2022-07-25T00:44:33.548Z,16.75
2022-07-25T00:46:39.652Z,16.74
2022-07-25T00:48:43.649Z,16.78
2022-07-25T00:50:47.100Z,16.80
2022-07-25T00:52:50.628Z,16.81
2022-07-25T00:54:53.983Z,16.80
2022-07-25T00:56:57.329Z,16.78
2022-07-25T00:59:00.676Z,16.78
2022-07-25T01:01:06.466Z,16.76
2022-07-25T01:03:10.008Z,16.73
2022-07-25T01:05:13.601Z,16.69
2022-07-25T01:07:17.164Z,16.65
2022-07-25T01:09:21.815Z,16.64
2022-07-25T01:11:25.981Z,16.63
2022-07-25T01:13:29.345Z,16.66
2022-07-25T01:15:33.286Z,16.66
2022-07-25T01:17:37.981Z,16.65
2022-07-25T01:19:41.425Z,16.64
2022-07-25T01:21:47.372Z,16.62
2022-07-25T01:23:50.643Z,16.56
2022-07-25T01:25:53.958Z,16.52
2022-07-25T01:27:58.047Z,16.48
2022-07-25T01:30:01.313Z,16.44
2022-07-25T01:32:04.929Z,16.41
2022-07-25T01:34:08.546Z,16.36
2022-07-25T01:36:12.489Z,16.34
2022-07-25T01:38:18.045Z,16.30
2022-07-25T01:40:21.422Z,16.26
2022-07-25T01:42:24.771Z,16.22
2022-07-25T01:44:28.276Z,16.20
2022-07-25T01:46:31.647Z,16.17
2022-07-25T01:48:35.521Z,16.16
2022-07-25T01:50:38.894Z,16.16
2022-07-25T01:52:42.834Z,16.17
2022-07-25T01:54:47.498Z,16.18
2022-07-25T01:56:51.243Z,16.19
2022-07-25T01:58:54.944Z,16.23
2022-07-25T02:00:58.369Z,16.26
2022-07-25T02:03:19.250Z,16.28
2022-07-25T02:05:23.048Z,16.31
2022-07-25T02:07:26.438Z,16.30
2022-07-25T02:09:30.694Z,16.28
2022-07-25T02:11:35.343Z,16.24
2022-07-25T02:13:38.784Z,16.21
2022-07-25T02:15:42.091Z,16.20
2022-07-25T02:17:45.385Z,16.21
2022-07-25T02:19:48.643Z,16.23
2022-07-25T02:21:52.204Z,16.24
2022-07-25T02:23:55.467Z,16.27
2022-07-25T02:25:58.860Z,16.27
2022-07-25T02:28:03.938Z,16.28
2022-07-25T02:30:08.482Z,16.29
2022-07-25T02:32:11.720Z,16.27
2022-07-25T02:34:15.049Z,16.23
2022-07-25T02:36:18.455Z,16.19
2022-07-25T02:38:21.957Z,16.18
2022-07-25T02:40:25.207Z,16.15
2022-07-25T02:42:28.812Z,16.10
2022-07-25T02:44:33.620Z,16.11
2022-07-25T02:46:37.424Z,16.10
2022-07-25T02:48:41.056Z,16.06
2022-07-25T02:50:44.418Z,16.03
2022-07-25T02:52:47.849Z,16.02
2022-07-25T02:54:51.961Z,16.01
2022-07-25T02:56:56.802Z,16.01
2022-07-25T02:59:00.199Z,16.02
2022-07-25T03:01:05.121Z,16.01
2022-07-25T03:03:08.408Z,16.01
2022-07-25T03:05:14.571Z,16.01
2022-07-25T03:07:18.015Z,16.00
2022-07-25T03:09:21.351Z,15.99
2022-07-25T03:11:24.772Z,16.00
2022-07-25T03:13:28.039Z,15.98
2022-07-25T03:15:31.892Z,15.98
2022-07-25T03:17:36.663Z,15.96
2022-07-25T03:19:40.068Z,15.97
2022-07-25T03:21:43.342Z,15.96
2022-07-25T03:23:51.970Z,15.97
2022-07-25T03:25:55.858Z,15.98
2022-07-25T03:27:59.362Z,15.99
2022-07-25T03:30:02.595Z,16.00
2022-07-25T03:32:06.902Z,15.99
2022-07-25T03:34:11.713Z,16.00
2022-07-25T03:36:15.026Z,16.02
2022-07-25T03:38:18.363Z,16.00
2022-07-25T03:40:22.503Z,16.03
2022-07-25T03:42:26.890Z,16.02
2022-07-25T03:44:30.667Z,16.05
2022-07-25T03:46:33.985Z,16.06
2022-07-25T03:48:37.348Z,16.07
2022-07-25T03:50:42.103Z,16.08
2022-07-25T03:52:45.442Z,16.07
2022-07-25T03:54:48.821Z,16.08
2022-07-25T03:56:52.874Z,16.06
2022-07-25T03:58:56.235Z,16.04
2022-07-25T04:00:59.639Z,16.03
2022-07-25T04:03:03.025Z,16.01
2022-07-25T04:05:07.588Z,16.00
2022-07-25T04:07:12.435Z,15.99
2022-07-25T04:09:18.346Z,15.98
2022-07-25T04:11:21.710Z,15.96
2022-07-25T04:13:24.970Z,15.94
2022-07-25T04:15:28.365Z,15.92
2022-07-25T04:17:34.306Z,15.92
2022-07-25T04:19:37.650Z,15.93
2022-07-25T04:21:41.029Z,15.94
2022-07-25T04:23:45.693Z,15.90
2022-07-25T04:25:49.302Z,15.90
2022-07-25T04:27:52.586Z,15.89
2022-07-25T04:29:55.839Z,15.89
2022-07-25T04:31:59.206Z,15.90
2022-07-25T04:34:02.717Z,15.90
2022-07-25T04:36:07.003Z,15.90
2022-07-25T04:38:12.283Z,15.93
2022-07-25T04:40:17.106Z,15.93
2022-07-25T04:42:20.444Z,15.94
2022-07-25T04:44:23.757Z,15.93
2022-07-25T04:46:27.221Z,15.94
2022-07-25T04:48:30.533Z,15.95
2022-07-25T04:50:33.965Z,15.98
2022-07-25T04:52:37.291Z,16.00
2022-07-25T04:54:40.870Z,16.02
2022-07-25T04:56:45.666Z,16.03
2022-07-25T04:58:49.498Z,16.06
2022-07-25T05:00:53.133Z,16.06
2022-07-25T05:02:56.494Z,16.06
2022-07-25T05:04:59.801Z,16.08
2022-07-25T05:07:06.526Z,16.07
2022-07-25T05:09:10.732Z,16.10
2022-07-25T05:11:14.047Z,16.11
2022-07-25T05:13:18.733Z,16.07
2022-07-25T05:15:22.386Z,16.07
2022-07-25T05:17:25.722Z,16.07
2022-07-25T05:19:29.292Z,16.06
2022-07-25T05:21:33.559Z,16.06
2022-07-25T05:23:36.805Z,16.05
2022-07-25T05:25:40.457Z,16.05
2022-07-25T05:27:43.707Z,16.08
2022-07-25T05:29:48.609Z,16.13
2022-07-25T05:31:51.916Z,16.16
2022-07-25T05:33:55.308Z,16.20
2022-07-25T05:35:58.572Z,16.24
2022-07-25T05:38:02.629Z,16.27
2022-07-25T05:40:07.529Z,16.28
2022-07-25T05:42:11.029Z,16.25
2022-07-25T05:44:14.284Z,16.23
2022-07-25T05:46:19.048Z,16.19
2022-07-25T05:48:22.546Z,16.20
2022-07-25T05:50:26.506Z,16.20
2022-07-25T05:52:30.058Z,16.19
2022-07-25T05:54:34.969Z,16.17
2022-07-25T05:56:38.701Z,16.18
2022-07-25T05:58:42.556Z,16.20
2022-07-25T06:00:45.951Z,16.22
2022-07-25T06:02:50.762Z,16.21
2022-07-25T06:04:54.109Z,16.19
2022-07-25T06:06:57.849Z,16.15
2022-07-25T06:09:01.116Z,16.11
2022-07-25T06:11:06.112Z,16.04
2022-07-25T06:13:12.027Z,15.99
2022-07-25T06:15:22.643Z,15.97
2022-07-25T06:17:32.546Z,15.97
2022-07-25T06:19:37.903Z,15.96
2022-07-25T06:21:42.227Z,15.93
2022-07-25T06:23:45.601Z,15.86
2022-07-25T06:25:50.127Z,15.82
2022-07-25T06:27:53.897Z,15.78
2022-07-25T06:29:57.260Z,15.78
2022-07-25T06:32:00.594Z,15.76
2022-07-25T06:34:04.744Z,15.73
2022-07-25T06:36:10.637Z,15.75
2022-07-25T06:38:14.108Z,15.98
2022-07-25T06:40:17.886Z,16.07
2022-07-25T06:42:21.467Z,16.12
2022-07-25T06:44:26.277Z,16.06
2022-07-25T06:46:31.699Z,15.99
2022-07-25T06:48:35.369Z,15.90
2022-07-25T06:50:39.005Z,15.84
2022-07-25T06:52:44.754Z,15.82
2022-07-25T06:54:48.256Z,15.86
2022-07-25T06:56:51.687Z,15.95
2022-07-25T06:58:55.003Z,16.09
2022-07-25T07:00:58.631Z,16.67
2022-07-25T07:03:03.260Z,17.31
2022-07-25T07:05:07.530Z,17.95
2022-07-25T07:07:10.911Z,18.77
2022-07-25T07:09:15.802Z,19.46
2022-07-25T07:11:19.452Z,19.59
2022-07-25T07:13:24.688Z,19.34
2022-07-25T07:15:28.556Z,19.02
2022-07-25T07:17:32.598Z,18.77
2022-07-25T07:19:36.687Z,18.58
2022-07-25T07:21:40.370Z,18.39
2022-07-25T07:23:44.116Z,18.17
2022-07-25T07:25:49.659Z,17.99
2022-07-25T07:27:53.495Z,17.99
2022-07-25T07:29:56.787Z,18.11
2022-07-25T07:32:00.178Z,18.11
2022-07-25T07:34:03.598Z,18.02
2022-07-25T07:36:07.154Z,17.74
2022-07-25T07:38:10.650Z,17.51
2022-07-25T07:40:17.323Z,17.36
2022-07-25T07:42:23.201Z,17.24
2022-07-25T07:44:26.475Z,17.14
2022-07-25T07:46:30.097Z,17.12
2022-07-25T07:48:35.027Z,17.12
2022-07-25T07:50:38.496Z,17.16
2022-07-25T07:52:42.317Z,17.25
2022-07-25T07:55:03.325Z,17.33
2022-07-25T07:57:06.658Z,17.38
2022-07-25T07:59:11.429Z,17.52
2022-07-25T08:01:15.333Z,17.59
2022-07-25T08:03:20.876Z,17.49
2022-07-25T08:05:26.440Z,17.35
2022-07-25T08:07:29.856Z,17.24
2022-07-25T08:09:33.716Z,17.14
2022-07-25T08:11:37.337Z,17.01
2022-07-25T08:13:41.325Z,16.92
2022-07-25T08:15:48.165Z,16.81
2022-07-25T08:17:53.223Z,16.72
2022-07-25T08:20:05.490Z,16.65
2022-07-25T08:22:17.942Z,16.61
2022-07-25T08:24:21.234Z,16.58
2022-07-25T08:26:27.979Z,16.57
2022-07-25T08:28:32.020Z,16.51
2022-07-25T08:30:37.587Z,16.45
2022-07-25T08:32:50.468Z,16.42
2022-07-25T08:34:54.257Z,16.46
2022-07-25T08:36:57.846Z,16.45
2022-07-25T08:39:01.664Z,16.42
2022-07-25T08:41:05.545Z,16.40
2022-07-25T08:43:14.085Z,16.37
2022-07-25T08:45:19.848Z,16.41
2022-07-25T08:47:23.982Z,16.48
2022-07-25T08:49:30.105Z,16.53
2022-07-25T08:51:35.637Z,16.56
2022-07-25T08:53:40.064Z,16.54
2022-07-25T08:55:46.004Z,16.57
2022-07-25T08:57:51.370Z,16.53
2022-07-25T08:59:54.945Z,16.53
2022-07-25T09:02:00.887Z,16.50
2022-07-25T09:04:05.805Z,16.47
2022-07-25T09:06:22.784Z,16.44
2022-07-25T09:08:26.402Z,16.40
2022-07-25T09:10:30.711Z,16.35
2022-07-25T09:12:34.682Z,16.33
2022-07-25T09:14:44.868Z,16.33
2022-07-25T09:16:49.211Z,16.26
2022-07-25T09:18:52.903Z,16.19
2022-07-25T09:20:59.936Z,16.17
2022-07-25T09:23:05.325Z,16.16
2022-07-25T09:25:20.625Z,16.15
2022-07-25T09:27:24.329Z,16.17
2022-07-25T09:29:30.402Z,16.22
2022-07-25T09:31:35.493Z,16.31
2022-07-25T09:33:48.151Z,16.33
2022-07-25T09:35:52.472Z,16.32
2022-07-25T09:37:55.973Z,16.37
2022-07-25T09:40:01.123Z,16.37
2022-07-25T09:42:15.623Z,16.34
2022-07-25T09:44:20.393Z,16.32
2022-07-25T09:46:32.314Z,16.35
2022-07-25T09:48:37.530Z,16.38
2022-07-25T09:50:41.710Z,16.38
2022-07-25T09:52:46.459Z,16.36
2022-07-25T09:54:50.437Z,16.34
2022-07-25T09:56:55.487Z,16.43
2022-07-25T09:59:01.745Z,16.54
2022-07-25T10:01:08.659Z,16.73
2022-07-25T10:03:31.335Z,16.88
2022-07-25T10:05:48.873Z,17.14
2022-07-25T10:07:55.836Z,17.39
2022-07-25T10:10:01.011Z,17.67
2022-07-25T10:12:07.369Z,17.74
2022-07-25T10:14:12.815Z,17.72
2022-07-25T10:16:18.708Z,17.68
2022-07-25T10:18:25.024Z,17.63
2022-07-25T10:20:30.634Z,17.58
2022-07-25T10:22:57.527Z,17.61
2022-07-25T10:25:11.817Z,17.57
2022-07-25T10:27:24.840Z,17.54
2022-07-25T10:29:35.538Z,17.43
2022-07-25T10:31:49.294Z,17.38
2022-07-25T10:33:57.083Z,17.38
2022-07-25T10:36:08.095Z,17.41
2022-07-25T10:38:12.191Z,17.50
2022-07-25T10:40:28.079Z,17.54
2022-07-25T10:42:36.889Z,17.57
2022-07-25T10:44:46.770Z,17.59
2022-07-25T10:46:50.515Z,17.71
2022-07-25T10:49:05.119Z,17.90
2022-07-25T10:51:10.235Z,17.99
2022-07-25T10:53:14.097Z,18.01
2022-07-25T10:55:25.040Z,17.98
2022-07-25T10:57:32.213Z,17.85
2022-07-25T10:59:40.802Z,17.75
2022-07-25T11:01:45.168Z,17.73
2022-07-25T11:03:49.362Z,17.72
2022-07-25T11:05:54.970Z,17.80
2022-07-25T11:08:20.741Z,17.93
2022-07-25T11:10:28.179Z,18.15
2022-07-25T11:12:31.950Z,18.27
2022-07-25T11:14:41.608Z,18.35
2022-07-25T11:16:46.401Z,18.50
2022-07-25T11:18:50.156Z,18.54
2022-07-25T11:21:05.806Z,18.55
2022-07-25T11:23:09.942Z,18.42
2022-07-25T11:25:15.625Z,18.34
2022-07-25T11:27:24.418Z,18.16
2022-07-25T11:29:28.402Z,17.97
2022-07-25T11:31:33.647Z,17.81
2022-07-25T11:33:38.771Z,17.72
2022-07-25T11:35:42.939Z,17.68
2022-07-25T11:37:49.554Z,17.71
2022-07-25T11:39:56.234Z,17.75
2022-07-25T11:42:02.200Z,17.86
2022-07-25T11:44:05.904Z,17.97
2022-07-25T11:46:09.875Z,18.08
2022-07-25T11:48:16.196Z,18.16
2022-07-25T11:50:30.407Z,18.18
2022-07-25T11:52:36.052Z,18.25
2022-07-25T11:54:39.978Z,18.27
2022-07-25T11:56:47.448Z,18.25
2022-07-25T11:59:09.200Z,18.18
2022-07-25T12:01:16.098Z,18.14
2022-07-25T12:03:22.088Z,18.12
2022-07-25T12:05:34.187Z,18.12
2022-07-25T12:07:44.756Z,18.09
2022-07-25T12:09:57.693Z,18.05
2022-07-25T12:12:05.192Z,18.02
2022-07-25T12:14:09.250Z,18.00
2022-07-25T12:16:12.992Z,18.01
2022-07-25T12:18:16.572Z,18.01
2022-07-25T12:20:23.649Z,18.04
2022-07-25T12:22:27.539Z,18.08
2022-07-25T12:24:31.337Z,18.19
2022-07-25T12:26:35.089Z,18.23
2022-07-25T12:28:39.315Z,18.22
2022-07-25T12:30:45.149Z,18.21
2022-07-25T12:32:49.271Z,18.15
2022-07-25T12:34:52.850Z,18.04
2022-07-25T12:36:57.986Z,17.88
2022-07-25T12:39:02.020Z,17.77
2022-07-25T12:41:05.880Z,17.74
2022-07-25T12:43:09.697Z,17.75
2022-07-25T12:45:15.036Z,17.81
2022-07-25T12:47:18.902Z,17.86
2022-07-25T12:49:22.669Z,17.98
2022-07-25T12:51:26.469Z,18.03
2022-07-25T12:53:32.016Z,18.11
2022-07-25T12:55:35.795Z,18.23
2022-07-25T12:57:40.283Z,18.32
2022-07-25T12:59:44.239Z,18.38
2022-07-25T13:01:49.005Z,18.52
2022-07-25T13:03:53.771Z,18.67
2022-07-25T13:05:57.887Z,18.79
2022-07-25T13:08:01.591Z,18.87
2022-07-25T13:10:08.710Z,18.91
2022-07-25T13:12:16.399Z,18.94
2022-07-25T13:14:21.267Z,19.01
2022-07-25T13:16:25.596Z,19.10
2022-07-25T13:18:30.713Z,19.18
2022-07-25T13:20:37.804Z,19.20
2022-07-25T13:22:42.464Z,19.22
2022-07-25T13:24:46.454Z,19.26
2022-07-25T13:26:52.402Z,19.32
2022-07-25T13:28:59.843Z,19.36
2022-07-25T13:31:06.254Z,19.37
2022-07-25T13:33:10.992Z,19.39
2022-07-25T13:35:20.139Z,19.34
2022-07-25T13:37:25.054Z,19.29
2022-07-25T13:39:29.047Z,19.26
2022-07-25T13:41:33.350Z,19.19
2022-07-25T13:43:38.746Z,19.16
2022-07-25T13:45:43.899Z,19.18
2022-07-25T13:47:56.373Z,19.18
2022-07-25T13:50:11.041Z,19.19
2022-07-25T13:52:14.861Z,19.18
2022-07-25T13:54:18.916Z,19.19
2022-07-25T13:56:23.006Z,19.18
2022-07-25T13:58:26.934Z,19.16
2022-07-25T14:00:32.371Z,19.11
2022-07-25T14:02:36.507Z,18.97
2022-07-25T14:04:40.711Z,18.88
2022-07-25T14:06:45.326Z,18.81
2022-07-25T14:08:49.414Z,18.74
2022-07-25T14:10:53.413Z,18.71
2022-07-25T14:12:58.218Z,18.67
2022-07-25T14:15:02.469Z,18.73
2022-07-25T14:17:08.334Z,18.90
2022-07-25T14:19:12.924Z,19.02
2022-07-25T14:21:16.997Z,19.08
2022-07-25T14:23:20.883Z,19.13
2022-07-25T14:25:24.929Z,19.16
2022-07-25T14:27:29.079Z,19.13
2022-07-25T14:29:32.944Z,19.13
2022-07-25T14:31:37.923Z,19.13
2022-07-25T14:33:44.083Z,19.13
2022-07-25T14:35:47.798Z,19.15
2022-07-25T14:37:52.570Z,19.17
2022-07-25T14:39:57.274Z,19.24
2022-07-25T14:42:01.575Z,19.32
2022-07-25T14:44:05.459Z,19.36
2022-07-25T14:46:09.862Z,19.36
2022-07-25T14:48:13.484Z,19.37
2022-07-25T14:50:18.607Z,19.40
2022-07-25T14:52:22.821Z,19.33
2022-07-25T14:54:28.702Z,19.22
2022-07-25T14:56:32.791Z,19.18
2022-07-25T14:58:38.657Z,19.14
2022-07-25T15:00:43.870Z,19.09
2022-07-25T15:02:48.305Z,19.06
2022-07-25T15:04:52.248Z,19.13
2022-07-25T15:06:58.115Z,19.21
2022-07-25T15:09:02.093Z,19.26
2022-07-25T15:11:06.397Z,19.25
2022-07-25T15:15:34.443Z,19.19
2022-07-25T15:17:39.280Z,19.16
2022-07-25T15:19:43.204Z,19.16
2022-07-25T15:21:47.334Z,19.17
2022-07-25T15:23:54.291Z,19.19
2022-07-25T15:26:02.342Z,19.18
2022-07-25T15:28:08.183Z,19.17
2022-07-25T15:30:12.703Z,19.13
2022-07-25T15:32:16.994Z,19.17
2022-07-25T15:34:21.097Z,19.21
2022-07-25T15:36:29.313Z,19.26
2022-07-25T15:38:34.242Z,19.28
2022-07-25T15:40:40.091Z,19.27
2022-07-25T15:42:44.593Z,19.20
2022-07-25T15:44:49.248Z,19.10
2022-07-25T15:46:52.951Z,19.06
2022-07-25T15:48:58.225Z,19.02
2022-07-25T15:51:02.666Z,18.97
2022-07-25T15:53:07.653Z,18.98
2022-07-25T15:55:11.908Z,18.98
2022-07-25T15:57:17.923Z,18.93
2022-07-25T15:59:22.262Z,18.96
2022-07-25T16:01:27.018Z,18.99
2022-07-25T16:03:31.301Z,19.03
2022-07-25T16:05:36.441Z,19.05
2022-07-25T16:07:40.404Z,19.08
2022-07-25T16:09:44.757Z,19.14
2022-07-25T16:11:49.247Z,19.22
2022-07-25T16:13:55.098Z,19.26
2022-07-25T16:15:59.277Z,19.27
2022-07-25T16:18:04.477Z,19.24
2022-07-25T16:20:10.685Z,19.21
2022-07-25T16:22:15.122Z,19.14
2022-07-25T16:24:19.306Z,19.07
2022-07-25T16:26:23.688Z,19.00
2022-07-25T16:28:27.970Z,18.95
2022-07-25T16:30:34.276Z,18.92
2022-07-25T16:32:38.511Z,18.94
2022-07-25T16:34:42.491Z,18.97
2022-07-25T16:36:46.662Z,19.01
2022-07-25T16:38:51.125Z,19.01
2022-07-25T16:40:55.320Z,18.97
2022-07-25T16:43:00.168Z,18.93
2022-07-25T16:45:04.446Z,18.88
2022-07-25T16:47:10.744Z,18.88
2022-07-25T16:49:15.864Z,18.82
2022-07-25T16:51:19.848Z,18.80
2022-07-25T16:53:24.091Z,18.81
2022-07-25T16:55:28.259Z,18.76
2022-07-25T16:57:33.860Z,18.63
2022-07-25T16:59:38.161Z,18.63
2022-07-25T17:01:42.580Z,18.68
2022-07-25T17:03:48.084Z,18.70
2022-07-25T17:05:54.472Z,18.68
2022-07-25T17:08:00.158Z,18.67
2022-07-25T17:10:04.465Z,18.66
2022-07-25T17:12:08.841Z,18.65
2022-07-25T17:14:12.738Z,18.58
2022-07-25T17:16:17.140Z,18.50
2022-07-25T17:18:21.444Z,18.40
2022-07-25T17:20:27.256Z,18.25
2022-07-25T17:22:31.736Z,18.12
2022-07-25T17:24:36.034Z,18.03
2022-07-25T17:26:40.241Z,17.97
2022-07-25T17:28:44.554Z,17.87
2022-07-25T17:30:48.901Z,17.80
2022-07-25T17:32:53.540Z,17.76
2022-07-25T17:34:57.338Z,17.73
2022-07-25T17:37:03.252Z,17.71
2022-07-25T17:39:08.476Z,17.63
2022-07-25T17:41:12.683Z,17.56
2022-07-25T17:43:16.554Z,17.52
2022-07-25T17:45:21.314Z,17.48
2022-07-25T17:47:25.136Z,17.47
2022-07-25T17:49:29.755Z,17.49
2022-07-25T17:51:34.444Z,17.53
2022-07-25T17:53:40.127Z,17.56
2022-07-25T17:55:45.152Z,17.59
2022-07-25T17:57:53.463Z,17.61
2022-07-25T17:59:58.443Z,17.59
2022-07-25T18:02:04.311Z,17.56
2022-07-25T18:04:08.851Z,17.54
2022-07-25T18:06:13.091Z,17.52
2022-07-25T18:08:17.312Z,17.50
2022-07-25T18:10:23.137Z,17.48
2022-07-25T18:12:29.445Z,17.43
2022-07-25T18:14:34.106Z,17.42
2022-07-25T18:16:38.106Z,17.42
2022-07-25T18:18:41.922Z,17.43
2022-07-25T18:20:46.252Z,17.46
2022-07-25T18:22:50.254Z,17.49
2022-07-25T18:24:54.262Z,17.45
2022-07-25T18:27:00.701Z,17.39
2022-07-25T18:29:04.996Z,17.33
2022-07-25T18:31:09.113Z,17.29
2022-07-25T18:33:13.466Z,17.26
2022-07-25T18:35:17.862Z,17.21
2022-07-25T18:37:21.983Z,17.18
2022-07-25T18:39:26.548Z,17.16
2022-07-25T18:41:30.819Z,17.15
2022-07-25T18:43:36.519Z,17.14
2022-07-25T18:45:41.106Z,17.08
2022-07-25T18:47:46.676Z,17.06
2022-07-25T18:49:51.349Z,17.06
2022-07-25T18:51:55.575Z,17.04
2022-07-25T18:53:59.265Z,17.05
2022-07-25T18:56:03.999Z,17.07
2022-07-25T18:58:09.134Z,17.07
2022-07-25T19:00:15.388Z,17.08
2022-07-25T19:02:18.959Z,17.08
2022-07-25T19:04:22.967Z,17.06
2022-07-25T19:06:27.241Z,17.06
2022-07-25T19:08:31.115Z,17.03
2022-07-25T19:10:35.294Z,17.02
2022-07-25T19:12:40.101Z,17.01
2022-07-25T19:14:44.596Z,16.98
2022-07-25T19:16:50.389Z,16.90
2022-07-25T19:18:54.253Z,16.87
2022-07-25T19:20:58.845Z,16.84
2022-07-25T19:23:03.444Z,16.82
2022-07-25T19:25:11.166Z,16.77
2022-07-25T19:27:15.274Z,16.72
2022-07-25T19:29:19.847Z,16.68
2022-07-25T19:31:24.079Z,16.65
2022-07-25T19:33:34.681Z,16.65
2022-07-25T19:35:39.902Z,16.62
2022-07-25T19:37:44.074Z,16.62
2022-07-25T19:39:49.202Z,16.61
2022-07-25T19:41:53.849Z,16.61
2022-07-25T19:43:57.708Z,16.57
2022-07-25T19:46:01.519Z,16.55
2022-07-25T19:48:05.486Z,16.50
2022-07-25T19:50:12.041Z,16.45
2022-07-25T19:52:15.826Z,16.45
2022-07-25T19:54:19.920Z,16.45
2022-07-25T19:56:23.480Z,16.47
2022-07-25T19:58:27.689Z,16.43
2022-07-25T20:00:31.706Z,16.39
2022-07-25T20:02:36.341Z,16.40
2022-07-25T20:04:40.726Z,16.39
2022-07-25T20:06:46.609Z,16.34
2022-07-25T20:08:51.494Z,16.29
2022-07-25T20:10:56.293Z,16.24
2022-07-25T20:13:01.706Z,16.21
2022-07-25T20:15:06.947Z,16.21
2022-07-25T20:17:10.782Z,16.17
2022-07-25T20:19:15.050Z,16.16
2022-07-25T20:21:19.508Z,16.18
2022-07-25T20:23:26.665Z,16.18
2022-07-25T20:25:30.656Z,16.18
2022-07-25T20:27:35.066Z,16.17
2022-07-25T20:29:39.037Z,16.15
2022-07-25T20:31:43.119Z,16.16
2022-07-25T20:33:46.647Z,16.14
2022-07-25T20:35:50.621Z,16.11
2022-07-25T20:37:54.754Z,16.05
2022-07-25T20:40:00.888Z,16.05
2022-07-25T20:42:04.806Z,16.06
2022-07-25T20:44:08.563Z,16.07
2022-07-25T20:46:12.453Z,16.12
2022-07-25T20:48:16.164Z,16.14
2022-07-25T20:50:20.291Z,16.15
2022-07-25T20:52:24.457Z,16.13
2022-07-25T20:54:28.149Z,16.12
2022-07-25T20:56:33.428Z,16.11
2022-07-25T20:58:37.258Z,16.08
2022-07-25T21:00:41.011Z,16.05
2022-07-25T21:02:44.518Z,16.03
2022-07-25T21:04:48.836Z,16.05
2022-07-25T21:06:53.244Z,16.05
2022-07-25T21:09:00.325Z,16.02
2022-07-25T21:11:05.268Z,15.97
2022-07-25T21:13:10.660Z,15.96
2022-07-25T21:15:15.567Z,15.95
2022-07-25T21:17:19.312Z,15.89
2022-07-25T21:19:23.315Z,15.87
2022-07-25T21:21:27.791Z,15.88
2022-07-25T21:23:31.682Z,15.89
2022-07-25T21:25:35.359Z,15.88
2022-07-25T21:27:39.220Z,15.87
2022-07-25T21:29:44.626Z,15.87
2022-07-25T21:31:49.143Z,15.87
2022-07-25T21:33:52.898Z,15.84
2022-07-25T21:35:56.817Z,15.83
2022-07-25T21:38:00.536Z,15.82
2022-07-25T21:40:04.328Z,15.82
2022-07-25T21:42:10.179Z,15.77
2022-07-25T21:44:14.157Z,15.74
2022-07-25T21:46:19.422Z,15.74
2022-07-25T21:48:44.143Z,15.74
2022-07-25T21:50:47.816Z,15.74
2022-07-25T21:52:53.357Z,15.74
2022-07-25T21:54:57.098Z,15.71
2022-07-25T21:57:00.652Z,15.69
2022-07-25T21:59:04.962Z,15.67
2022-07-25T22:01:09.299Z,15.67
2022-07-25T22:03:14.391Z,15.64
2022-07-25T22:05:19.085Z,15.62
2022-07-25T22:07:23.193Z,15.61
2022-07-25T22:09:27.267Z,15.58
2022-07-25T22:11:39.243Z,15.55
2022-07-25T22:13:47.510Z,15.51
2022-07-25T22:15:51.744Z,15.49
2022-07-25T22:17:56.594Z,15.48
2022-07-25T22:20:04.527Z,15.45
2022-07-25T22:22:09.334Z,15.43
2022-07-25T22:24:13.349Z,15.40
2022-07-25T22:26:17.733Z,15.38
2022-07-25T22:28:22.261Z,15.38
2022-07-25T22:30:26.447Z,15.38
2022-07-25T22:32:30.465Z,15.32
2022-07-25T22:34:34.758Z,15.28
2022-07-25T22:36:40.462Z,15.23
2022-07-25T22:38:44.881Z,15.20
2022-07-25T22:40:49.068Z,15.20
2022-07-25T22:42:53.606Z,15.18
2022-07-25T22:44:58.012Z,15.15
2022-07-25T22:47:02.083Z,15.13
2022-07-25T22:49:06.863Z,15.11
2022-07-25T22:51:12.181Z,15.05
2022-07-25T22:53:17.599Z,15.01
2022-07-25T22:55:22.050Z,14.94
2022-07-25T22:57:27.488Z,14.89
2022-07-25T22:59:31.668Z,14.87
2022-07-25T23:01:35.575Z,14.86
2022-07-25T23:03:39.745Z,14.86
2022-07-25T23:05:44.055Z,14.87
2022-07-25T23:07:48.229Z,14.86
2022-07-25T23:09:53.788Z,14.84
2022-07-25T23:11:57.635Z,14.82
2022-07-25T23:14:02.605Z,14.80
2022-07-25T23:16:10.438Z,14.78
2022-07-25T23:18:14.761Z,14.78
2022-07-25T23:20:18.995Z,14.76
2022-07-25T23:22:24.596Z,14.74
2022-07-25T23:24:28.748Z,14.74
2022-07-25T23:26:34.573Z,14.76
2022-07-25T23:28:39.484Z,14.73
2022-07-25T23:30:43.966Z,14.68
2022-07-25T23:32:48.899Z,14.65
2022-07-25T23:34:52.802Z,14.66
2022-07-25T23:36:57.181Z,14.65
2022-07-25T23:39:01.114Z,14.68
2022-07-25T23:41:05.562Z,14.66
2022-07-25T23:43:11.133Z,14.66
2022-07-25T23:45:17.740Z,14.65
2022-07-25T23:47:26.817Z,14.61
2022-07-25T23:49:43.482Z,14.56
2022-07-25T23:51:47.268Z,14.54
2022-07-25T23:53:51.941Z,14.52
2022-07-25T23:55:55.932Z,14.52
2022-07-25T23:58:00.044Z,14.48
